sensor_id;sensor_type;location;lat;lon;timestamp;pressure;altitude;pressure_sealevel;temperature;humidity
80186;BME280;69904;52.122;5.422;2023-06-01T00:02:00;102463.84;;;14.04;64.52
80186;BME280;69904;52.122;5.422;2023-06-01T00:04:27;102468.72;;;14.08;64.44
80186;BME280;69904;52.122;5.422;2023-06-01T00:06:53;102460.00;;;13.98;64.21
80186;BME280;69904;52.122;5.422;2023-06-01T00:09:20;102468.47;;;13.95;64.42
80186;BME280;69904;52.122;5.422;2023-06-01T00:11:46;102456.59;;;13.96;64.92
80186;BME280;69904;52.122;5.422;2023-06-01T00:14:13;102455.03;;;14.02;64.43
80186;BME280;69904;52.122;5.422;2023-06-01T00:16:39;102464.19;;;14.01;64.16
80186;BME280;69904;52.122;5.422;2023-06-01T00:19:06;102455.41;;;13.99;64.40
80186;BME280;69904;52.122;5.422;2023-06-01T00:21:33;102459.06;;;14.06;64.71
80186;BME280;69904;52.122;5.422;2023-06-01T00:24:02;102458.72;;;14.09;64.32
80186;BME280;69904;52.122;5.422;2023-06-01T00:26:29;102454.59;;;14.13;64.61
80186;BME280;69904;52.122;5.422;2023-06-01T00:28:59;102457.88;;;14.08;64.52
80186;BME280;69904;52.122;5.422;2023-06-01T00:31:26;102454.56;;;13.98;64.86
80186;BME280;69904;52.122;5.422;2023-06-01T00:33:53;102449.38;;;13.88;64.94
80186;BME280;69904;52.122;5.422;2023-06-01T00:36:20;102451.25;;;13.88;64.94
80186;BME280;69904;52.122;5.422;2023-06-01T00:38:46;102452.91;;;13.89;64.61
80186;BME280;69904;52.122;5.422;2023-06-01T00:41:13;102457.81;;;13.94;64.92
80186;BME280;69904;52.122;5.422;2023-06-01T00:43:39;102447.00;;;13.85;65.18
80186;BME280;69904;52.122;5.422;2023-06-01T00:46:06;102448.03;;;13.84;65.13
80186;BME280;69904;52.122;5.422;2023-06-01T00:48:33;102451.41;;;13.86;65.26
80186;BME280;69904;52.122;5.422;2023-06-01T00:51:00;102452.84;;;13.74;65.08
80186;BME280;69904;52.122;5.422;2023-06-01T00:53:27;102459.19;;;13.67;65.20
80186;BME280;69904;52.122;5.422;2023-06-01T00:55:54;102447.94;;;13.70;65.37
80186;BME280;69904;52.122;5.422;2023-06-01T00:58:20;102451.81;;;13.75;65.39
80186;BME280;69904;52.122;5.422;2023-06-01T01:00:47;102454.84;;;13.80;65.67
80186;BME280;69904;52.122;5.422;2023-06-01T01:03:15;102454.53;;;13.75;65.67
80186;BME280;69904;52.122;5.422;2023-06-01T01:05:42;102452.81;;;13.82;66.11
80186;BME280;69904;52.122;5.422;2023-06-01T01:08:28;102450.25;;;13.81;65.29
80186;BME280;69904;52.122;5.422;2023-06-01T01:11:07;102454.22;;;13.70;65.63
80186;BME280;69904;52.122;5.422;2023-06-01T01:13:44;102448.66;;;13.64;65.87
80186;BME280;69904;52.122;5.422;2023-06-01T01:16:28;102451.91;;;13.59;66.48
80186;BME280;69904;52.122;5.422;2023-06-01T01:25:20;102453.63;;;13.52;66.17
80186;BME280;69904;52.122;5.422;2023-06-01T01:28:08;102454.53;;;13.44;66.93
80186;BME280;69904;52.122;5.422;2023-06-01T01:30:37;102452.00;;;13.43;66.74
80186;BME280;69904;52.122;5.422;2023-06-01T01:33:05;102453.22;;;13.40;66.98
80186;BME280;69904;52.122;5.422;2023-06-01T01:35:32;102453.84;;;13.51;67.22
80186;BME280;69904;52.122;5.422;2023-06-01T01:37:59;102450.44;;;13.48;66.86
80186;BME280;69904;52.122;5.422;2023-06-01T01:40:26;102458.41;;;13.50;66.78
80186;BME280;69904;52.122;5.422;2023-06-01T01:42:52;102456.09;;;13.39;66.83
80186;BME280;69904;52.122;5.422;2023-06-01T01:45:20;102462.69;;;13.36;66.76
80186;BME280;69904;52.122;5.422;2023-06-01T01:48:03;102451.22;;;13.26;66.83
80186;BME280;69904;52.122;5.422;2023-06-01T01:50:51;102458.66;;;13.32;66.79
80186;BME280;69904;52.122;5.422;2023-06-01T01:53:19;102459.13;;;13.36;67.09
80186;BME280;69904;52.122;5.422;2023-06-01T01:55:47;102449.13;;;13.44;66.81
80186;BME280;69904;52.122;5.422;2023-06-01T01:58:15;102445.06;;;13.40;66.99
80186;BME280;69904;52.122;5.422;2023-06-01T02:00:42;102451.00;;;13.36;66.52
80186;BME280;69904;52.122;5.422;2023-06-01T02:03:14;102442.69;;;13.37;66.76
80186;BME280;69904;52.122;5.422;2023-06-01T02:05:41;102436.25;;;13.38;66.79
80186;BME280;69904;52.122;5.422;2023-06-01T02:08:07;102439.44;;;13.42;66.86
80186;BME280;69904;52.122;5.422;2023-06-01T02:10:34;102447.28;;;13.37;66.90
80186;BME280;69904;52.122;5.422;2023-06-01T02:13:00;102446.13;;;13.31;67.32
80186;BME280;69904;52.122;5.422;2023-06-01T02:15:27;102447.81;;;13.32;66.64
80186;BME280;69904;52.122;5.422;2023-06-01T02:17:53;102446.38;;;13.14;66.80
80186;BME280;69904;52.122;5.422;2023-06-01T02:20:20;102447.41;;;12.96;66.72
80186;BME280;69904;52.122;5.422;2023-06-01T02:22:46;102449.13;;;12.89;67.41
80186;BME280;69904;52.122;5.422;2023-06-01T02:25:13;102441.16;;;12.88;67.33
80186;BME280;69904;52.122;5.422;2023-06-01T02:27:39;102440.13;;;12.89;66.71
80186;BME280;69904;52.122;5.422;2023-06-01T02:30:06;102440.19;;;12.81;67.07
80186;BME280;69904;52.122;5.422;2023-06-01T02:32:33;102439.50;;;12.87;67.11
80186;BME280;69904;52.122;5.422;2023-06-01T02:35:01;102440.81;;;12.91;67.42
80186;BME280;69904;52.122;5.422;2023-06-01T02:37:27;102432.69;;;12.91;66.91
80186;BME280;69904;52.122;5.422;2023-06-01T02:39:54;102432.69;;;12.91;67.19
80186;BME280;69904;52.122;5.422;2023-06-01T02:42:20;102439.97;;;12.90;67.39
80186;BME280;69904;52.122;5.422;2023-06-01T02:44:47;102440.66;;;12.92;67.62
80186;BME280;69904;52.122;5.422;2023-06-01T02:47:13;102438.44;;;12.96;67.42
80186;BME280;69904;52.122;5.422;2023-06-01T02:49:39;102435.72;;;12.96;67.74
80186;BME280;69904;52.122;5.422;2023-06-01T02:52:06;102435.88;;;12.94;67.41
80186;BME280;69904;52.122;5.422;2023-06-01T02:54:33;102433.50;;;12.99;67.57
80186;BME280;69904;52.122;5.422;2023-06-01T02:56:59;102440.97;;;12.97;67.69
80186;BME280;69904;52.122;5.422;2023-06-01T02:59:27;102436.78;;;12.87;67.35
80186;BME280;69904;52.122;5.422;2023-06-01T03:01:54;102436.63;;;12.72;67.75
80186;BME280;69904;52.122;5.422;2023-06-01T03:04:20;102440.38;;;12.71;67.85
80186;BME280;69904;52.122;5.422;2023-06-01T03:06:47;102433.25;;;12.70;67.59
80186;BME280;69904;52.122;5.422;2023-06-01T03:09:15;102436.97;;;12.69;67.67
80186;BME280;69904;52.122;5.422;2023-06-01T03:11:42;102428.16;;;12.67;68.06
80186;BME280;69904;52.122;5.422;2023-06-01T03:14:08;102430.06;;;12.58;68.09
80186;BME280;69904;52.122;5.422;2023-06-01T03:16:35;102426.84;;;12.55;68.24
80186;BME280;69904;52.122;5.422;2023-06-01T03:19:01;102425.97;;;12.62;68.44
80186;BME280;69904;52.122;5.422;2023-06-01T03:21:28;102425.97;;;12.62;68.05
80186;BME280;69904;52.122;5.422;2023-06-01T03:23:54;102428.69;;;12.62;68.25
80186;BME280;69904;52.122;5.422;2023-06-01T03:26:21;102429.69;;;12.70;68.16
80186;BME280;69904;52.122;5.422;2023-06-01T03:28:47;102432.72;;;12.66;68.22
80186;BME280;69904;52.122;5.422;2023-06-01T03:31:14;102438.16;;;12.66;67.77
80186;BME280;69904;52.122;5.422;2023-06-01T03:33:42;102431.41;;;12.62;68.23
80186;BME280;69904;52.122;5.422;2023-06-01T03:36:08;102424.81;;;12.57;68.45
80186;BME280;69904;52.122;5.422;2023-06-01T03:38:35;102428.88;;;12.53;68.29
80186;BME280;69904;52.122;5.422;2023-06-01T03:41:01;102432.97;;;12.49;68.10
80186;BME280;69904;52.122;5.422;2023-06-01T03:43:28;102418.41;;;12.50;68.58
80186;BME280;69904;52.122;5.422;2023-06-01T03:45:56;102424.47;;;12.52;68.31
80186;BME280;69904;52.122;5.422;2023-06-01T03:48:22;102430.56;;;12.54;68.32
80186;BME280;69904;52.122;5.422;2023-06-01T03:50:49;102421.78;;;12.60;68.46
80186;BME280;69904;52.122;5.422;2023-06-01T03:53:15;102427.16;;;12.68;68.40
80186;BME280;69904;52.122;5.422;2023-06-01T03:55:41;102429.69;;;12.70;68.23
80186;BME280;69904;52.122;5.422;2023-06-01T03:58:08;102432.91;;;12.73;68.48
80186;BME280;69904;52.122;5.422;2023-06-01T04:00:34;102428.81;;;12.77;68.42
80186;BME280;69904;52.122;5.422;2023-06-01T04:03:02;102432.91;;;12.73;68.57
80186;BME280;69904;52.122;5.422;2023-06-01T04:05:33;102426.09;;;12.77;68.30
80186;BME280;69904;52.122;5.422;2023-06-01T04:08:02;102418.81;;;12.78;68.50
80186;BME280;69904;52.122;5.422;2023-06-01T04:10:28;102423.97;;;12.64;68.89
80186;BME280;69904;52.122;5.422;2023-06-01T04:12:55;102425.63;;;12.74;68.61
80186;BME280;69904;52.122;5.422;2023-06-01T04:15:22;102419.03;;;12.76;68.39
80186;BME280;69904;52.122;5.422;2023-06-01T04:17:49;102421.53;;;12.78;68.59
80186;BME280;69904;52.122;5.422;2023-06-01T04:20:16;102421.84;;;12.83;68.62
80186;BME280;69904;52.122;5.422;2023-06-01T04:22:45;102421.84;;;12.83;68.35
80186;BME280;69904;52.122;5.422;2023-06-01T04:25:14;102430.19;;;12.81;68.37
80186;BME280;69904;52.122;5.422;2023-06-01T04:27:45;102432.69;;;12.83;68.03
80186;BME280;69904;52.122;5.422;2023-06-01T04:30:13;102428.00;;;12.77;68.49
80186;BME280;69904;52.122;5.422;2023-06-01T04:32:41;102427.16;;;12.76;68.43
80186;BME280;69904;52.122;5.422;2023-06-01T04:35:10;102428.31;;;12.74;68.21
80186;BME280;69904;52.122;5.422;2023-06-01T04:37:38;102437.50;;;12.64;68.37
80186;BME280;69904;52.122;5.422;2023-06-01T04:40:08;102432.72;;;12.66;67.93
80186;BME280;69904;52.122;5.422;2023-06-01T04:42:38;102432.56;;;12.68;67.82
80186;BME280;69904;52.122;5.422;2023-06-01T04:45:05;102435.13;;;12.61;67.69
80186;BME280;69904;52.122;5.422;2023-06-01T04:47:34;102430.38;;;12.55;68.09
80186;BME280;69904;52.122;5.422;2023-06-01T04:50:06;102427.69;;;12.47;68.67
80186;BME280;69904;52.122;5.422;2023-06-01T04:52:38;102434.97;;;12.55;67.91
80186;BME280;69904;52.122;5.422;2023-06-01T04:55:05;102438.50;;;12.63;67.96
80186;BME280;69904;52.122;5.422;2023-06-01T04:57:33;102437.50;;;12.64;68.37
80186;BME280;69904;52.122;5.422;2023-06-01T05:00:05;102432.72;;;12.66;68.24
80186;BME280;69904;52.122;5.422;2023-06-01T05:02:38;102437.66;;;12.71;68.18
80186;BME280;69904;52.122;5.422;2023-06-01T05:05:06;102439.84;;;12.76;67.83
80186;BME280;69904;52.122;5.422;2023-06-01T05:07:34;102444.25;;;12.69;67.98
80186;BME280;69904;52.122;5.422;2023-06-01T05:10:04;102437.13;;;12.68;67.98
80186;BME280;69904;52.122;5.422;2023-06-01T05:12:32;102441.56;;;12.69;68.29
80186;BME280;69904;52.122;5.422;2023-06-01T05:15:00;102441.56;;;12.77;68.40
80186;BME280;69904;52.122;5.422;2023-06-01T05:17:27;102446.44;;;12.81;68.44
80186;BME280;69904;52.122;5.422;2023-06-01T05:19:53;102442.03;;;12.80;68.37
80186;BME280;69904;52.122;5.422;2023-06-01T05:22:19;102444.38;;;12.83;68.56
80186;BME280;69904;52.122;5.422;2023-06-01T05:24:46;102440.13;;;12.89;68.35
80186;BME280;69904;52.122;5.422;2023-06-01T05:27:13;102440.81;;;12.91;68.17
80186;BME280;69904;52.122;5.422;2023-06-01T05:29:39;102442.53;;;12.92;68.57
80186;BME280;69904;52.122;5.422;2023-06-01T05:32:06;102445.03;;;13.01;67.74
80186;BME280;69904;52.122;5.422;2023-06-01T05:34:33;102439.75;;;13.00;67.79
80186;BME280;69904;52.122;5.422;2023-06-01T05:37:00;102438.75;;;13.01;67.82
80186;BME280;69904;52.122;5.422;2023-06-01T05:39:27;102440.63;;;13.00;67.86
80186;BME280;69904;52.122;5.422;2023-06-01T05:41:55;102440.97;;;12.97;67.91
80186;BME280;69904;52.122;5.422;2023-06-01T05:44:21;102443.00;;;12.95;67.82
80186;BME280;69904;52.122;5.422;2023-06-01T05:46:48;102444.84;;;13.03;68.18
80186;BME280;69904;52.122;5.422;2023-06-01T05:49:15;102446.06;;;12.92;67.82
80186;BME280;69904;52.122;5.422;2023-06-01T05:51:42;102447.94;;;12.92;67.68
80186;BME280;69904;52.122;5.422;2023-06-01T05:54:09;102447.94;;;12.92;67.51
80186;BME280;69904;52.122;5.422;2023-06-01T05:56:36;102450.81;;;12.90;67.34
80186;BME280;69904;52.122;5.422;2023-06-01T05:59:08;102450.31;;;12.87;67.27
80186;BME280;69904;52.122;5.422;2023-06-01T06:01:35;102458.78;;;12.92;67.76
80186;BME280;69904;52.122;5.422;2023-06-01T06:04:03;102451.13;;;12.95;66.98
80186;BME280;69904;52.122;5.422;2023-06-01T06:06:29;102454.53;;;12.97;67.53
80186;BME280;69904;52.122;5.422;2023-06-01T06:08:58;102453.16;;;13.01;67.25
80186;BME280;69904;52.122;5.422;2023-06-01T06:11:24;102455.03;;;13.01;67.12
80186;BME280;69904;52.122;5.422;2023-06-01T06:13:52;102443.84;;;12.96;66.82
80186;BME280;69904;52.122;5.422;2023-06-01T06:16:18;102449.75;;;12.99;66.84
80186;BME280;69904;52.122;5.422;2023-06-01T06:18:45;102449.59;;;13.01;66.65
80186;BME280;69904;52.122;5.422;2023-06-01T06:21:11;102450.78;;;12.98;67.26
80186;BME280;69904;52.122;5.422;2023-06-01T06:23:38;102455.69;;;13.03;67.29
80186;BME280;69904;52.122;5.422;2023-06-01T06:26:06;102447.25;;;12.90;67.35
80186;BME280;69904;52.122;5.422;2023-06-01T06:28:33;102443.50;;;12.99;67.12
80186;BME280;69904;52.122;5.422;2023-06-01T06:30:59;102450.59;;;13.08;66.54
80186;BME280;69904;52.122;5.422;2023-06-01T06:33:27;102447.03;;;13.16;66.61
80186;BME280;69904;52.122;5.422;2023-06-01T06:35:53;102436.34;;;13.22;66.46
80186;BME280;69904;52.122;5.422;2023-06-01T06:38:20;102443.09;;;13.26;66.28
80186;BME280;69904;52.122;5.422;2023-06-01T06:40:47;102449.84;;;13.30;66.24
80186;BME280;69904;52.122;5.422;2023-06-01T06:43:13;102447.13;;;13.30;66.48
80186;BME280;69904;52.122;5.422;2023-06-01T06:45:41;102448.88;;;13.23;66.15
80186;BME280;69904;52.122;5.422;2023-06-01T06:48:08;102446.00;;;13.25;66.01
80186;BME280;69904;52.122;5.422;2023-06-01T06:50:34;102446.97;;;13.32;65.80
80186;BME280;69904;52.122;5.422;2023-06-01T06:53:01;102449.19;;;13.28;65.86
80186;BME280;69904;52.122;5.422;2023-06-01T06:55:28;102451.41;;;13.25;65.84
80186;BME280;69904;52.122;5.422;2023-06-01T06:57:54;102455.63;;;13.27;66.02
80186;BME280;69904;52.122;5.422;2023-06-01T07:00:21;102453.06;;;13.34;65.51
80186;BME280;69904;52.122;5.422;2023-06-01T07:02:48;102465.56;;;13.43;65.79
80186;BME280;69904;52.122;5.422;2023-06-01T07:05:15;102464.16;;;13.47;65.68
80186;BME280;69904;52.122;5.422;2023-06-01T07:07:41;102459.44;;;13.49;65.93
80186;BME280;69904;52.122;5.422;2023-06-01T07:10:08;102466.88;;;13.55;65.82
80186;BME280;69904;52.122;5.422;2023-06-01T07:12:35;102463.97;;;13.57;65.60
80186;BME280;69904;52.122;5.422;2023-06-01T07:15:02;102459.28;;;13.73;65.58
80186;BME280;69904;52.122;5.422;2023-06-01T07:17:28;102459.06;;;13.83;65.21
80186;BME280;69904;52.122;5.422;2023-06-01T07:19:55;102460.56;;;13.85;64.84
80186;BME280;69904;52.122;5.422;2023-06-01T07:22:22;102458.69;;;13.86;64.71
80186;BME280;69904;52.122;5.422;2023-06-01T07:24:48;102453.94;;;13.88;64.74
80186;BME280;69904;52.122;5.422;2023-06-01T07:27:14;102458.22;;;13.82;64.43
80186;BME280;69904;52.122;5.422;2023-06-01T07:29:41;102457.00;;;13.85;64.76
80186;BME280;69904;52.122;5.422;2023-06-01T07:32:10;102452.28;;;13.79;64.01
80186;BME280;69904;52.122;5.422;2023-06-01T07:34:37;102455.16;;;13.85;63.92
80186;BME280;69904;52.122;5.422;2023-06-01T07:37:04;102453.75;;;13.89;64.00
80186;BME280;69904;52.122;5.422;2023-06-01T07:39:43;102458.47;;;13.96;63.91
80186;BME280;69904;52.122;5.422;2023-06-01T07:42:09;102460.00;;;13.98;63.61
80186;BME280;69904;52.122;5.422;2023-06-01T07:44:36;102453.16;;;14.02;63.43
80186;BME280;69904;52.122;5.422;2023-06-01T07:47:03;102458.03;;;14.07;63.57
80186;BME280;69904;52.122;5.422;2023-06-01T07:49:29;102448.72;;;14.09;63.47
80186;BME280;69904;52.122;5.422;2023-06-01T07:51:56;102447.78;;;14.17;63.34
80186;BME280;69904;52.122;5.422;2023-06-01T07:54:23;102457.75;;;14.24;63.63
80186;BME280;69904;52.122;5.422;2023-06-01T07:56:49;102451.72;;;14.37;63.21
80186;BME280;69904;52.122;5.422;2023-06-01T07:59:16;102450.91;;;14.37;62.81
80186;BME280;69904;52.122;5.422;2023-06-01T08:01:42;102456.78;;;14.40;62.70
80186;BME280;69904;52.122;5.422;2023-06-01T08:04:09;102453.94;;;14.33;62.48
80186;BME280;69904;52.122;5.422;2023-06-01T08:06:36;102457.03;;;14.30;62.84
80186;BME280;69904;52.122;5.422;2023-06-01T08:09:04;102450.25;;;14.26;62.12
80186;BME280;69904;52.122;5.422;2023-06-01T08:11:30;102446.94;;;14.39;62.43
80186;BME280;69904;52.122;5.422;2023-06-01T08:13:57;102447.91;;;14.46;61.80
80186;BME280;69904;52.122;5.422;2023-06-01T08:16:26;102443.88;;;14.42;62.61
80186;BME280;69904;52.122;5.422;2023-06-01T08:18:53;102444.34;;;14.46;62.96
80186;BME280;69904;52.122;5.422;2023-06-01T08:21:19;102445.50;;;14.51;62.75
80186;BME280;69904;52.122;5.422;2023-06-01T08:23:46;102445.97;;;14.55;62.76
80186;BME280;69904;52.122;5.422;2023-06-01T08:26:13;102435.88;;;14.63;62.14
80186;BME280;69904;52.122;5.422;2023-06-01T08:28:40;102435.78;;;14.71;61.55
80186;BME280;69904;52.122;5.422;2023-06-01T08:31:06;102434.28;;;14.84;61.62
80186;BME280;69904;52.122;5.422;2023-06-01T08:33:34;102440.19;;;15.02;61.33
80186;BME280;69904;52.122;5.422;2023-06-01T08:36:00;102428.72;;;15.06;61.18
80186;BME280;69904;52.122;5.422;2023-06-01T08:38:27;102432.31;;;15.07;61.10
80186;BME280;69904;52.122;5.422;2023-06-01T08:41:03;102433.44;;;15.27;61.22
80186;BME280;69904;52.122;5.422;2023-06-01T08:43:32;102438.09;;;15.33;61.11
80186;BME280;69904;52.122;5.422;2023-06-01T08:46:02;102437.53;;;15.23;61.38
80186;BME280;69904;52.122;5.422;2023-06-01T08:48:29;102441.13;;;15.09;60.17
80186;BME280;69904;52.122;5.422;2023-06-01T08:50:58;102429.78;;;15.05;61.02
80186;BME280;69904;52.122;5.422;2023-06-01T08:53:28;102427.97;;;15.12;60.64
80186;BME280;69904;52.122;5.422;2023-06-01T08:55:56;102426.31;;;15.11;60.60
80186;BME280;69904;52.122;5.422;2023-06-01T08:58:23;102430.91;;;15.11;60.44
80186;BME280;69904;52.122;5.422;2023-06-01T09:00:51;102430.03;;;15.25;60.94
80186;BME280;69904;52.122;5.422;2023-06-01T09:03:19;102418.50;;;15.52;60.29
80186;BME280;69904;52.122;5.422;2023-06-01T09:05:46;102422.88;;;15.39;59.99
80186;BME280;69904;52.122;5.422;2023-06-01T09:08:13;102421.84;;;15.40;60.56
80186;BME280;69904;52.122;5.422;2023-06-01T09:10:40;102418.84;;;15.64;60.05
80186;BME280;69904;52.122;5.422;2023-06-01T09:13:06;102415.53;;;15.90;59.77
80186;BME280;69904;52.122;5.422;2023-06-01T09:15:33;102415.78;;;15.74;59.26
80186;BME280;69904;52.122;5.422;2023-06-01T09:18:08;102415.72;;;15.67;59.52
80186;BME280;69904;52.122;5.422;2023-06-01T09:20:37;102425.97;;;15.65;59.53
80186;BME280;69904;52.122;5.422;2023-06-01T09:23:05;102419.47;;;15.66;59.49
80186;BME280;69904;52.122;5.422;2023-06-01T09:25:32;102423.63;;;15.62;59.23
80186;BME280;69904;52.122;5.422;2023-06-01T09:28:00;102416.13;;;15.64;59.09
80186;BME280;69904;52.122;5.422;2023-06-01T09:30:42;102407.97;;;15.85;59.47
80186;BME280;69904;52.122;5.422;2023-06-01T09:33:14;102392.25;;;16.09;58.43
80186;BME280;69904;52.122;5.422;2023-06-01T09:35:42;102394.00;;;16.16;57.92
80186;BME280;69904;52.122;5.422;2023-06-01T09:38:10;102390.25;;;16.17;57.76
80186;BME280;69904;52.122;5.422;2023-06-01T09:40:38;102393.13;;;16.37;58.16
80186;BME280;69904;52.122;5.422;2023-06-01T09:43:21;102400.00;;;16.33;57.81
80186;BME280;69904;52.122;5.422;2023-06-01T09:46:10;102397.81;;;16.22;57.89
80186;BME280;69904;52.122;5.422;2023-06-01T09:48:40;102395.59;;;16.32;57.84
80186;BME280;69904;52.122;5.422;2023-06-01T09:51:21;102386.97;;;16.28;57.49
80186;BME280;69904;52.122;5.422;2023-06-01T09:53:48;102389.91;;;16.27;58.12
80186;BME280;69904;52.122;5.422;2023-06-01T09:56:15;102389.13;;;16.33;57.28
80186;BME280;69904;52.122;5.422;2023-06-01T09:58:41;102393.00;;;16.52;57.07
80186;BME280;69904;52.122;5.422;2023-06-01T10:01:09;102389.88;;;16.76;56.95
80186;BME280;69904;52.122;5.422;2023-06-01T10:03:41;102387.47;;;17.01;55.74
80186;BME280;69904;52.122;5.422;2023-06-01T10:06:10;102380.69;;;16.90;56.27
80186;BME280;69904;52.122;5.422;2023-06-01T10:08:38;102388.22;;;16.88;55.04
80186;BME280;69904;52.122;5.422;2023-06-01T10:11:04;102377.38;;;16.95;55.65
80186;BME280;69904;52.122;5.422;2023-06-01T10:13:31;102384.38;;;17.10;55.31
80186;BME280;69904;52.122;5.422;2023-06-01T10:15:58;102384.59;;;17.09;54.96
80186;BME280;69904;52.122;5.422;2023-06-01T10:18:24;102384.25;;;17.25;55.29
80186;BME280;69904;52.122;5.422;2023-06-01T10:20:51;102377.94;;;17.24;55.00
80186;BME280;69904;52.122;5.422;2023-06-01T10:23:18;102384.25;;;17.32;54.60
80186;BME280;69904;52.122;5.422;2023-06-01T10:25:56;102386.56;;;17.35;54.31
80186;BME280;69904;52.122;5.422;2023-06-01T10:28:24;102391.22;;;17.47;53.71
80186;BME280;69904;52.122;5.422;2023-06-01T10:33:56;102386.84;;;17.46;53.33
80186;BME280;69904;52.122;5.422;2023-06-01T10:36:24;102387.91;;;17.58;53.69
80186;BME280;69904;52.122;5.422;2023-06-01T10:41:51;102374.50;;;17.70;53.64
80186;BME280;69904;52.122;5.422;2023-06-01T10:47:06;102387.56;;;17.68;53.50
80186;BME280;69904;52.122;5.422;2023-06-01T10:52:28;102381.91;;;18.02;53.05
80186;BME280;69904;52.122;5.422;2023-06-01T10:55:18;102382.28;;;17.80;52.56
80186;BME280;69904;52.122;5.422;2023-06-01T10:57:46;102379.41;;;17.94;52.77
80186;BME280;69904;52.122;5.422;2023-06-01T11:00:26;102383.38;;;18.12;52.42
80186;BME280;69904;52.122;5.422;2023-06-01T11:05:46;102374.97;;;18.33;51.56
80186;BME280;69904;52.122;5.422;2023-06-01T11:18:51;102372.03;;;17.88;53.09
80186;BME280;69904;52.122;5.422;2023-06-01T11:21:28;102368.06;;;18.04;52.18
80186;BME280;69904;52.122;5.422;2023-06-01T11:23:57;102370.97;;;18.02;52.35
80186;BME280;69904;52.122;5.422;2023-06-01T11:26:29;102369.94;;;18.30;51.79
80186;BME280;69904;52.122;5.422;2023-06-01T11:29:09;102370.75;;;18.43;52.00
80186;BME280;69904;52.122;5.422;2023-06-01T11:31:43;102359.41;;;18.33;51.42
80186;BME280;69904;52.122;5.422;2023-06-01T11:34:11;102371.81;;;18.36;51.65
80186;BME280;69904;52.122;5.422;2023-06-01T11:36:43;102359.59;;;18.51;51.07
80186;BME280;69904;52.122;5.422;2023-06-01T11:39:21;102359.38;;;18.66;51.50
80186;BME280;69904;52.122;5.422;2023-06-01T11:41:52;102362.56;;;18.63;50.98
80186;BME280;69904;52.122;5.422;2023-06-01T11:44:35;102354.94;;;18.72;51.45
80186;BME280;69904;52.122;5.422;2023-06-01T11:47:03;102352.22;;;18.78;51.98
80186;BME280;69904;52.122;5.422;2023-06-01T11:49:30;102359.81;;;18.63;52.07
80186;BME280;69904;52.122;5.422;2023-06-01T11:51:56;102359.63;;;18.58;53.21
80186;BME280;69904;52.122;5.422;2023-06-01T11:54:25;102367.78;;;18.71;53.03
80186;BME280;69904;52.122;5.422;2023-06-01T11:56:53;102355.34;;;18.75;52.72
80186;BME280;69904;52.122;5.422;2023-06-01T11:59:24;102360.66;;;18.50;52.86
80186;BME280;69904;52.122;5.422;2023-06-01T12:01:50;102369.06;;;18.49;53.48
80186;BME280;69904;52.122;5.422;2023-06-01T12:04:21;102364.25;;;18.31;54.02
80186;BME280;69904;52.122;5.422;2023-06-01T12:06:48;102370.56;;;18.19;54.01
80186;BME280;69904;52.122;5.422;2023-06-01T12:09:15;102365.31;;;18.04;54.98
80186;BME280;69904;52.122;5.422;2023-06-01T12:11:43;102375.38;;;17.97;55.19
80186;BME280;69904;52.122;5.422;2023-06-01T12:14:11;102374.50;;;17.63;55.12
80186;BME280;69904;52.122;5.422;2023-06-01T12:16:59;102374.84;;;17.41;55.84
80186;BME280;69904;52.122;5.422;2023-06-01T12:19:29;102379.88;;;17.44;56.17
80186;BME280;69904;52.122;5.422;2023-06-01T12:21:58;102381.53;;;17.38;56.03
80186;BME280;69904;52.122;5.422;2023-06-01T12:24:30;102373.56;;;17.37;55.89
80186;BME280;69904;52.122;5.422;2023-06-01T12:26:57;102386.31;;;17.23;56.57
80186;BME280;69904;52.122;5.422;2023-06-01T12:29:41;102386.66;;;17.07;56.49
80186;BME280;69904;52.122;5.422;2023-06-01T12:32:10;102385.16;;;16.98;57.57
80186;BME280;69904;52.122;5.422;2023-06-01T12:34:38;102384.13;;;16.99;57.76
80186;BME280;69904;52.122;5.422;2023-06-01T12:37:18;102386.84;;;16.99;57.45
80186;BME280;69904;52.122;5.422;2023-06-01T12:39:55;102381.41;;;16.99;57.12
80186;BME280;69904;52.122;5.422;2023-06-01T12:45:05;102385.34;;;16.96;58.17
80186;BME280;69904;52.122;5.422;2023-06-01T12:47:39;102375.44;;;16.89;57.99
80186;BME280;69904;52.122;5.422;2023-06-01T12:50:08;102385.06;;;16.84;58.37
80186;BME280;69904;52.122;5.422;2023-06-01T12:52:40;102380.19;;;16.73;57.86
80186;BME280;69904;52.122;5.422;2023-06-01T12:55:08;102380.59;;;16.70;58.27
80186;BME280;69904;52.122;5.422;2023-06-01T12:57:36;102380.97;;;16.67;59.15
80186;BME280;69904;52.122;5.422;2023-06-01T13:00:04;102385.88;;;16.72;59.10
80186;BME280;69904;52.122;5.422;2023-06-01T13:02:32;102380.78;;;16.69;58.62
80186;BME280;69904;52.122;5.422;2023-06-01T13:05:00;102375.75;;;16.72;58.89
80186;BME280;69904;52.122;5.422;2023-06-01T13:07:27;102389.03;;;16.75;58.79
80186;BME280;69904;52.122;5.422;2023-06-01T13:09:53;102378.25;;;16.67;58.98
80186;BME280;69904;52.122;5.422;2023-06-01T13:12:20;102379.09;;;16.61;59.69
80186;BME280;69904;52.122;5.422;2023-06-01T13:14:46;102371.09;;;16.60;58.63
80186;BME280;69904;52.122;5.422;2023-06-01T13:17:13;102371.19;;;16.52;59.25
80186;BME280;69904;52.122;5.422;2023-06-01T13:19:39;102369.97;;;16.54;59.35
80186;BME280;69904;52.122;5.422;2023-06-01T13:22:09;102367.97;;;16.63;59.58
80186;BME280;69904;52.122;5.422;2023-06-01T13:24:36;102372.38;;;16.64;59.70
80186;BME280;69904;52.122;5.422;2023-06-01T13:27:05;102366.06;;;16.63;59.25
80186;BME280;69904;52.122;5.422;2023-06-01T13:29:33;102366.25;;;16.62;59.92
80186;BME280;69904;52.122;5.422;2023-06-01T13:31:59;102375.69;;;16.59;59.91